CCM109C LFKB-LFML
Flight info
| Callsign | CCM109C |
|---|---|
| Flight time | 0h 40m |
| Altitude | 29000 |
| Route | SODRI A3 OMARD STP A3 RUBIT G7 LANKO |
| Aircraft | A320/M-SDE3FGHIRWY/LB1 |
Departure
| Time | 2026-04-29 20:18 |
|---|---|
| Airport | Bastia-Poretta International airport (LFKB) |
Arrival
| Time | 2026-04-29 20:59 |
|---|---|
| Airport | Marseille Provence Airport (LFML) |
| Time | Latitude | Longitude | Altitude | Speed | Heading |
|---|---|---|---|---|---|
| 2026-04-29 20:03 | 42.54778 | 9.48179 | 35 ft | 0 kts | 253° |
| 2026-04-29 20:12 | 42.54786 | 9.48173 | 34 ft | 3 kts | 340° |
| 2026-04-29 20:12 | 42.54790 | 9.48188 | 33 ft | 1 kts | 81° |
| 2026-04-29 20:12 | 42.54794 | 9.48221 | 35 ft | 7 kts | 79° |
| 2026-04-29 20:12 | 42.54803 | 9.48265 | 35 ft | 4 kts | 63° |
| 2026-04-29 20:13 | 42.54822 | 9.48277 | 35 ft | 3 kts | 2° |
| 2026-04-29 20:13 | 42.54852 | 9.48269 | 33 ft | 13 kts | 346° |
| 2026-04-29 20:13 | 42.54974 | 9.48233 | 35 ft | 13 kts | 356° |
| 2026-04-29 20:13 | 42.55054 | 9.48207 | 35 ft | 11 kts | 343° |
| 2026-04-29 20:14 | 42.55125 | 9.48177 | 35 ft | 10 kts | 342° |
| 2026-04-29 20:14 | 42.55189 | 9.48150 | 35 ft | 9 kts | 342° |
| 2026-04-29 20:14 | 42.55252 | 9.48124 | 35 ft | 12 kts | 342° |
| 2026-04-29 20:14 | 42.55348 | 9.48083 | 35 ft | 17 kts | 342° |
| 2026-04-29 20:15 | 42.55478 | 9.48028 | 35 ft | 22 kts | 343° |
| 2026-04-29 20:15 | 42.55643 | 9.47959 | 31 ft | 26 kts | 343° |
| 2026-04-29 20:15 | 42.55758 | 9.47911 | 28 ft | 15 kts | 343° |
| 2026-04-29 20:15 | 42.55852 | 9.47872 | 28 ft | 12 kts | 343° |
| 2026-04-29 20:16 | 42.55928 | 9.47881 | 25 ft | 11 kts | 36° |
| 2026-04-29 20:16 | 42.55942 | 9.47916 | 25 ft | 0 kts | 68° |
| 2026-04-29 20:16 | 42.55959 | 9.47971 | 25 ft | 14 kts | 68° |
| 2026-04-29 20:17 | 42.55963 | 9.48069 | 26 ft | 8 kts | 150° |
| 2026-04-29 20:17 | 42.55921 | 9.48094 | 26 ft | 5 kts | 162° |
| 2026-04-29 20:17 | 42.55834 | 9.48133 | 26 ft | 40 kts | 161° |
| 2026-04-29 20:17 | 42.55336 | 9.48347 | 35 ft | 107 kts | 163° |
| 2026-04-29 20:18 | 42.54457 | 9.48723 | 159 ft | 145 kts | 162° |
| 2026-04-29 20:18 | 42.53817 | 9.48996 | 580 ft | 142 kts | 160° |
| 2026-04-29 20:18 | 42.52970 | 9.49685 | 1197 ft | 143 kts | 147° |
| 2026-04-29 20:18 | 42.52135 | 9.50414 | 1830 ft | 145 kts | 151° |
| 2026-04-29 20:19 | 42.51216 | 9.51160 | 2150 ft | 164 kts | 151° |
| 2026-04-29 20:19 | 42.50180 | 9.51995 | 2400 ft | 187 kts | 151° |
| 2026-04-29 20:19 | 42.48989 | 9.52963 | 2688 ft | 213 kts | 150° |
| 2026-04-29 20:19 | 42.47648 | 9.54058 | 3117 ft | 237 kts | 149° |
| 2026-04-29 20:20 | 42.46169 | 9.55276 | 3594 ft | 259 kts | 149° |
| 2026-04-29 20:20 | 42.44601 | 9.56577 | 4355 ft | 268 kts | 149° |
| 2026-04-29 20:20 | 42.43080 | 9.58093 | 5162 ft | 278 kts | 131° |
| 2026-04-29 20:20 | 42.42266 | 9.60461 | 5989 ft | 283 kts | 96° |
| 2026-04-29 20:21 | 42.42536 | 9.63076 | 6852 ft | 286 kts | 64° |
| 2026-04-29 20:21 | 42.43811 | 9.65102 | 7696 ft | 286 kts | 31° |
| 2026-04-29 20:21 | 42.45688 | 9.65894 | 8492 ft | 286 kts | 358° |
| 2026-04-29 20:21 | 42.47580 | 9.65200 | 9322 ft | 285 kts | 325° |
| 2026-04-29 20:22 | 42.48953 | 9.63292 | 10148 ft | 285 kts | 302° |
| 2026-04-29 20:22 | 42.50028 | 9.60931 | 10526 ft | 306 kts | 300° |
| 2026-04-29 20:22 | 42.51169 | 9.58366 | 10749 ft | 330 kts | 300° |
| 2026-04-29 20:22 | 42.52391 | 9.55600 | 10903 ft | 353 kts | 300° |
| 2026-04-29 20:23 | 42.53743 | 9.52692 | 11038 ft | 375 kts | 304° |
| 2026-04-29 20:23 | 42.55388 | 9.49863 | 11443 ft | 386 kts | 309° |
| 2026-04-29 20:23 | 42.57140 | 9.47087 | 12104 ft | 389 kts | 307° |
| 2026-04-29 20:23 | 42.58689 | 9.44052 | 12696 ft | 394 kts | 302° |
| 2026-04-29 20:24 | 42.60121 | 9.40865 | 13327 ft | 397 kts | 300° |
| 2026-04-29 20:24 | 42.61497 | 9.37585 | 13967 ft | 400 kts | 298° |
| 2026-04-29 20:24 | 42.62830 | 9.34254 | 14543 ft | 404 kts | 297° |
| 2026-04-29 20:24 | 42.64155 | 9.30874 | 15103 ft | 407 kts | 297° |
| 2026-04-29 20:25 | 42.65489 | 9.27465 | 15660 ft | 410 kts | 297° |
| 2026-04-29 20:25 | 42.66838 | 9.24046 | 16209 ft | 412 kts | 297° |
| 2026-04-29 20:25 | 42.68208 | 9.20608 | 16714 ft | 415 kts | 298° |
| 2026-04-29 20:25 | 42.69554 | 9.17167 | 17206 ft | 418 kts | 294° |
| 2026-04-29 20:26 | 42.70451 | 9.13404 | 17698 ft | 421 kts | 284° |
| 2026-04-29 20:26 | 42.71172 | 9.09538 | 18183 ft | 423 kts | 283° |
| 2026-04-29 20:26 | 42.71886 | 9.05633 | 18576 ft | 427 kts | 283° |
| 2026-04-29 20:26 | 42.72599 | 9.01699 | 18959 ft | 430 kts | 283° |
| 2026-04-29 20:27 | 42.73311 | 8.97739 | 19357 ft | 432 kts | 283° |
| 2026-04-29 20:27 | 42.73785 | 8.95105 | 19608 ft | 433 kts | 283° |
| 2026-04-29 20:27 | 42.74745 | 8.89771 | 20118 ft | 436 kts | 284° |
| 2026-04-29 20:27 | 42.75470 | 8.85752 | 20487 ft | 438 kts | 284° |
| 2026-04-29 20:28 | 42.76197 | 8.81726 | 20838 ft | 439 kts | 284° |
| 2026-04-29 20:28 | 42.76923 | 8.77676 | 21190 ft | 441 kts | 284° |
| 2026-04-29 20:28 | 42.77647 | 8.73607 | 21518 ft | 443 kts | 284° |
| 2026-04-29 20:28 | 42.78364 | 8.69573 | 21844 ft | 445 kts | 284° |
| 2026-04-29 20:29 | 42.79093 | 8.65465 | 22132 ft | 448 kts | 284° |
| 2026-04-29 20:29 | 42.79827 | 8.61335 | 22436 ft | 450 kts | 284° |
| 2026-04-29 20:29 | 42.80563 | 8.57187 | 22737 ft | 451 kts | 284° |
| 2026-04-29 20:29 | 42.81300 | 8.53022 | 23034 ft | 453 kts | 284° |
| 2026-04-29 20:30 | 42.82038 | 8.48842 | 23328 ft | 455 kts | 284° |
| 2026-04-29 20:30 | 42.82776 | 8.44643 | 23593 ft | 456 kts | 284° |
| 2026-04-29 20:30 | 42.83515 | 8.40429 | 23818 ft | 458 kts | 284° |
| 2026-04-29 20:30 | 42.84256 | 8.36210 | 24034 ft | 459 kts | 284° |
| 2026-04-29 20:31 | 42.85003 | 8.31969 | 24236 ft | 461 kts | 284° |
| 2026-04-29 20:31 | 42.85751 | 8.27715 | 24417 ft | 462 kts | 284° |
| 2026-04-29 20:31 | 42.86499 | 8.23445 | 24592 ft | 464 kts | 284° |
| 2026-04-29 20:31 | 42.87245 | 8.19163 | 24765 ft | 465 kts | 283° |
| 2026-04-29 20:32 | 42.87989 | 8.14860 | 24965 ft | 465 kts | 283° |
| 2026-04-29 20:32 | 42.88727 | 8.10573 | 25205 ft | 464 kts | 283° |
| 2026-04-29 20:32 | 42.89461 | 8.06294 | 25441 ft | 463 kts | 283° |
| 2026-04-29 20:32 | 42.90188 | 8.02061 | 25679 ft | 463 kts | 283° |
| 2026-04-29 20:33 | 42.90924 | 7.97786 | 25913 ft | 463 kts | 284° |
| 2026-04-29 20:33 | 42.91660 | 7.93515 | 26140 ft | 463 kts | 283° |
| 2026-04-29 20:33 | 42.92391 | 7.89244 | 26393 ft | 462 kts | 283° |
| 2026-04-29 20:33 | 42.93116 | 7.84980 | 26649 ft | 461 kts | 283° |
| 2026-04-29 20:34 | 42.93837 | 7.80724 | 26917 ft | 460 kts | 283° |
| 2026-04-29 20:34 | 42.94556 | 7.76463 | 27167 ft | 460 kts | 283° |
| 2026-04-29 20:34 | 42.95273 | 7.72208 | 27432 ft | 460 kts | 283° |
| 2026-04-29 20:34 | 42.95992 | 7.67957 | 27692 ft | 459 kts | 283° |
| 2026-04-29 20:35 | 42.96708 | 7.63715 | 27979 ft | 459 kts | 283° |
| 2026-04-29 20:35 | 42.97421 | 7.59474 | 28269 ft | 458 kts | 283° |
| 2026-04-29 20:35 | 42.98130 | 7.55240 | 28559 ft | 457 kts | 283° |
| 2026-04-29 20:35 | 42.98838 | 7.51002 | 28836 ft | 457 kts | 283° |
| 2026-04-29 20:36 | 42.99542 | 7.46775 | 29018 ft | 457 kts | 283° |
| 2026-04-29 20:36 | 43.00246 | 7.42533 | 29043 ft | 460 kts | 283° |
| 2026-04-29 20:36 | 43.01653 | 7.34056 | 29041 ft | 460 kts | 283° |
| 2026-04-29 20:37 | 43.03060 | 7.25520 | 29043 ft | 460 kts | 283° |
| 2026-04-29 20:37 | 43.04456 | 7.16978 | 29043 ft | 460 kts | 283° |
| 2026-04-29 20:38 | 43.05856 | 7.08436 | 29046 ft | 461 kts | 283° |
| 2026-04-29 20:38 | 43.07245 | 6.99883 | 29049 ft | 461 kts | 283° |
| 2026-04-29 20:39 | 43.08629 | 6.91311 | 29049 ft | 461 kts | 283° |
| 2026-04-29 20:39 | 43.10005 | 6.82750 | 29045 ft | 461 kts | 282° |
| 2026-04-29 20:40 | 43.10687 | 6.78483 | 28909 ft | 453 kts | 282° |
| 2026-04-29 20:40 | 43.11344 | 6.74352 | 28722 ft | 435 kts | 282° |
| 2026-04-29 20:40 | 43.11979 | 6.70373 | 28585 ft | 419 kts | 282° |
| 2026-04-29 20:40 | 43.12589 | 6.66547 | 28445 ft | 404 kts | 282° |
| 2026-04-29 20:41 | 43.13164 | 6.62934 | 28117 ft | 385 kts | 282° |
| 2026-04-29 20:41 | 43.13726 | 6.59375 | 27740 ft | 379 kts | 282° |
| 2026-04-29 20:41 | 43.14278 | 6.55862 | 27338 ft | 375 kts | 282° |
| 2026-04-29 20:41 | 43.14825 | 6.52383 | 26895 ft | 372 kts | 282° |
| 2026-04-29 20:42 | 43.15365 | 6.48953 | 26223 ft | 366 kts | 282° |
| 2026-04-29 20:42 | 43.15900 | 6.45561 | 25444 ft | 362 kts | 282° |
| 2026-04-29 20:42 | 43.16426 | 6.42207 | 24670 ft | 359 kts | 282° |
| 2026-04-29 20:42 | 43.16946 | 6.38875 | 23923 ft | 356 kts | 282° |
| 2026-04-29 20:43 | 43.17460 | 6.35577 | 23123 ft | 352 kts | 282° |
| 2026-04-29 20:43 | 43.17962 | 6.32357 | 22331 ft | 348 kts | 282° |
| 2026-04-29 20:43 | 43.18464 | 6.29130 | 21568 ft | 344 kts | 282° |
| 2026-04-29 20:43 | 43.18951 | 6.25938 | 20665 ft | 343 kts | 279° |
| 2026-04-29 20:44 | 43.18935 | 6.22638 | 19458 ft | 353 kts | 258° |
| 2026-04-29 20:44 | 43.18067 | 6.19461 | 18230 ft | 362 kts | 244° |
| 2026-04-29 20:44 | 43.16894 | 6.16347 | 16691 ft | 373 kts | 243° |
| 2026-04-29 20:44 | 43.15651 | 6.13135 | 15303 ft | 389 kts | 243° |
| 2026-04-29 20:45 | 43.14358 | 6.09809 | 14192 ft | 402 kts | 243° |
| 2026-04-29 20:45 | 43.13043 | 6.06421 | 13376 ft | 403 kts | 243° |
| 2026-04-29 20:45 | 43.11746 | 6.03038 | 12651 ft | 400 kts | 243° |
| 2026-04-29 20:45 | 43.10454 | 5.99675 | 11929 ft | 396 kts | 243° |
| 2026-04-29 20:46 | 43.09177 | 5.96366 | 11461 ft | 387 kts | 243° |
| 2026-04-29 20:46 | 43.07949 | 5.93196 | 11332 ft | 368 kts | 243° |
| 2026-04-29 20:46 | 43.06777 | 5.90176 | 11206 ft | 351 kts | 244° |
| 2026-04-29 20:46 | 43.05980 | 5.87128 | 11082 ft | 333 kts | 263° |
| 2026-04-29 20:47 | 43.05916 | 5.84080 | 10962 ft | 318 kts | 272° |
| 2026-04-29 20:47 | 43.05987 | 5.81117 | 10838 ft | 306 kts | 273° |
| 2026-04-29 20:47 | 43.06063 | 5.78266 | 10715 ft | 294 kts | 273° |
| 2026-04-29 20:47 | 43.06138 | 5.75507 | 10487 ft | 288 kts | 273° |
| 2026-04-29 20:48 | 43.06206 | 5.72786 | 10171 ft | 285 kts | 273° |
| 2026-04-29 20:48 | 43.06273 | 5.70083 | 9808 ft | 284 kts | 272° |
| 2026-04-29 20:48 | 43.06346 | 5.67396 | 9436 ft | 281 kts | 273° |
| 2026-04-29 20:48 | 43.06422 | 5.64732 | 9063 ft | 279 kts | 273° |
| 2026-04-29 20:49 | 43.06503 | 5.62078 | 8630 ft | 279 kts | 273° |
| 2026-04-29 20:49 | 43.06591 | 5.59418 | 8198 ft | 279 kts | 273° |
| 2026-04-29 20:49 | 43.06683 | 5.56762 | 7773 ft | 279 kts | 273° |
| 2026-04-29 20:49 | 43.06781 | 5.54112 | 7359 ft | 279 kts | 273° |
| 2026-04-29 20:50 | 43.06883 | 5.51502 | 6949 ft | 278 kts | 273° |
| 2026-04-29 20:50 | 43.06990 | 5.48861 | 6540 ft | 278 kts | 273° |
| 2026-04-29 20:50 | 43.07103 | 5.46223 | 6115 ft | 277 kts | 273° |
| 2026-04-29 20:50 | 43.07219 | 5.43596 | 5685 ft | 277 kts | 273° |
| 2026-04-29 20:51 | 43.07343 | 5.40972 | 5266 ft | 276 kts | 273° |
| 2026-04-29 20:51 | 43.07603 | 5.38383 | 4849 ft | 275 kts | 287° |
| 2026-04-29 20:51 | 43.08512 | 5.36108 | 4445 ft | 273 kts | 311° |
| 2026-04-29 20:51 | 43.10007 | 5.34543 | 4065 ft | 271 kts | 337° |
| 2026-04-29 20:52 | 43.11824 | 5.33957 | 3987 ft | 270 kts | 359° |
| 2026-04-29 20:52 | 43.13710 | 5.33838 | 3929 ft | 270 kts | 359° |
| 2026-04-29 20:52 | 43.15588 | 5.33717 | 3509 ft | 269 kts | 359° |
| 2026-04-29 20:52 | 43.17429 | 5.33594 | 3298 ft | 258 kts | 359° |
| 2026-04-29 20:53 | 43.19179 | 5.33476 | 3176 ft | 246 kts | 360° |
| 2026-04-29 20:53 | 43.20828 | 5.33366 | 3065 ft | 233 kts | 360° |
| 2026-04-29 20:53 | 43.22409 | 5.33263 | 2997 ft | 220 kts | 0° |
| 2026-04-29 20:53 | 43.23891 | 5.33170 | 2996 ft | 208 kts | 360° |
| 2026-04-29 20:54 | 43.26743 | 5.32996 | 3036 ft | 201 kts | 360° |
| 2026-04-29 20:54 | 43.28087 | 5.32913 | 2997 ft | 184 kts | 0° |
| 2026-04-29 20:54 | 43.29306 | 5.32819 | 2989 ft | 168 kts | 354° |
| 2026-04-29 20:55 | 43.30428 | 5.32447 | 2893 ft | 164 kts | 347° |
| 2026-04-29 20:55 | 43.31517 | 5.32035 | 2752 ft | 162 kts | 348° |
| 2026-04-29 20:55 | 43.32599 | 5.31625 | 2631 ft | 161 kts | 348° |
| 2026-04-29 20:55 | 43.33670 | 5.31218 | 2506 ft | 158 kts | 348° |
| 2026-04-29 20:56 | 43.34720 | 5.30818 | 2390 ft | 156 kts | 348° |
| 2026-04-29 20:56 | 43.35762 | 5.30420 | 2268 ft | 154 kts | 348° |
| 2026-04-29 20:56 | 43.36791 | 5.30028 | 2152 ft | 153 kts | 348° |
| 2026-04-29 20:56 | 43.37799 | 5.29596 | 2053 ft | 152 kts | 336° |
| 2026-04-29 20:57 | 43.38616 | 5.28701 | 1817 ft | 154 kts | 315° |
| 2026-04-29 20:57 | 43.39352 | 5.27653 | 1516 ft | 150 kts | 315° |
| 2026-04-29 20:57 | 43.40069 | 5.26632 | 1244 ft | 147 kts | 315° |
| 2026-04-29 20:57 | 43.40775 | 5.25629 | 985 ft | 145 kts | 315° |
| 2026-04-29 20:58 | 43.41465 | 5.24649 | 737 ft | 140 kts | 315° |
| 2026-04-29 20:58 | 43.42133 | 5.23699 | 484 ft | 136 kts | 315° |
| 2026-04-29 20:58 | 43.42781 | 5.22777 | 222 ft | 133 kts | 314° |
| 2026-04-29 20:58 | 43.43409 | 5.21871 | 45 ft | 122 kts | 313° |
| 2026-04-29 20:59 | 43.43822 | 5.21255 | 37 ft | 44 kts | 311° |
| 2026-04-29 20:59 | 43.44016 | 5.21009 | 30 ft | 32 kts | 318° |
| 2026-04-29 20:59 | 43.44084 | 5.20945 | 28 ft | 9 kts | 346° |
| 2026-04-29 20:59 | 43.44130 | 5.20982 | 32 ft | 9 kts | 64° |
| 2026-04-29 21:00 | 43.44161 | 5.21070 | 26 ft | 8 kts | 64° |
| 2026-04-29 21:00 | 43.44158 | 5.21140 | 25 ft | 7 kts | 112° |
| 2026-04-29 21:00 | 43.44106 | 5.21224 | 25 ft | 15 kts | 134° |
| 2026-04-29 21:00 | 43.44051 | 5.21302 | 26 ft | 10 kts | 134° |
| 2026-04-29 21:01 | 43.44005 | 5.21367 | 27 ft | 12 kts | 134° |
| 2026-04-29 21:01 | 43.43936 | 5.21468 | 29 ft | 13 kts | 132° |
| 2026-04-29 21:01 | 43.43925 | 5.21557 | 34 ft | 5 kts | 68° |
| 2026-04-29 21:01 | 43.43958 | 5.21608 | 40 ft | 11 kts | 47° |
| 2026-04-29 21:02 | 43.43953 | 5.21722 | 42 ft | 18 kts | 128° |
| 2026-04-29 21:02 | 43.43877 | 5.21847 | 44 ft | 15 kts | 134° |
| 2026-04-29 21:02 | 43.43808 | 5.21946 | 45 ft | 13 kts | 134° |
| 2026-04-29 21:02 | 43.43730 | 5.22035 | 47 ft | 12 kts | 148° |
| 2026-04-29 21:03 | 43.43690 | 5.22109 | 50 ft | 8 kts | 90° |
| 2026-04-29 21:03 | 43.43724 | 5.22181 | 50 ft | 13 kts | 45° |
| 2026-04-29 21:03 | 43.43731 | 5.22278 | 53 ft | 9 kts | 103° |
| 2026-04-29 21:03 | 43.43737 | 5.22350 | 54 ft | 7 kts | 75° |
| 2026-04-29 21:04 | 43.43756 | 5.22444 | 51 ft | 11 kts | 75° |
| 2026-04-29 21:04 | 43.43799 | 5.22533 | 54 ft | 15 kts | 32° |
| 2026-04-29 21:04 | 43.43884 | 5.22546 | 52 ft | 9 kts | 339° |
| 2026-04-29 21:04 | 43.43882 | 5.22508 | 53 ft | 3 kts | 255° |
| 2026-04-29 21:05 | 43.43882 | 5.22475 | 52 ft | 4 kts | 268° |
| 2026-04-29 21:05 | 43.43881 | 5.22465 | 52 ft | 0 kts | 267° |